sensor_id;sensor_type;location;lat;lon;timestamp;temperature;humidity
17954;DHT22;9102;53.548;9.926;2024-02-21T00:00:45;9.30;99.90
17954;DHT22;9102;53.548;9.926;2024-02-21T00:03:12;9.30;99.90
17954;DHT22;9102;53.548;9.926;2024-02-21T00:05:40;9.20;99.90
17954;DHT22;9102;53.548;9.926;2024-02-21T00:08:07;9.20;99.90
17954;DHT22;9102;53.548;9.926;2024-02-21T00:10:34;9.20;99.90
17954;DHT22;9102;53.548;9.926;2024-02-21T00:13:01;9.20;99.90
17954;DHT22;9102;53.548;9.926;2024-02-21T00:15:28;9.20;99.90
17954;DHT22;9102;53.548;9.926;2024-02-21T00:17:55;9.20;99.90
17954;DHT22;9102;53.548;9.926;2024-02-21T00:20:22;9.20;99.90
17954;DHT22;9102;53.548;9.926;2024-02-21T00:22:53;9.20;99.90
17954;DHT22;9102;53.548;9.926;2024-02-21T00:25:20;9.10;99.90
17954;DHT22;9102;53.548;9.926;2024-02-21T00:27:47;9.20;99.90
17954;DHT22;9102;53.548;9.926;2024-02-21T00:30:13;9.20;99.90
17954;DHT22;9102;53.548;9.926;2024-02-21T00:32:40;9.20;99.90
17954;DHT22;9102;53.548;9.926;2024-02-21T00:35:08;9.20;99.90
17954;DHT22;9102;53.548;9.926;2024-02-21T00:37:34;9.20;99.90
17954;DHT22;9102;53.548;9.926;2024-02-21T00:40:03;9.30;99.90
17954;DHT22;9102;53.548;9.926;2024-02-21T00:42:30;9.20;99.90
17954;DHT22;9102;53.548;9.926;2024-02-21T00:44:58;9.20;99.90
17954;DHT22;9102;53.548;9.926;2024-02-21T00:47:25;9.20;99.90
17954;DHT22;9102;53.548;9.926;2024-02-21T00:49:51;9.20;99.90
17954;DHT22;9102;53.548;9.926;2024-02-21T00:52:18;9.30;99.90
17954;DHT22;9102;53.548;9.926;2024-02-21T00:54:45;9.30;99.90
17954;DHT22;9102;53.548;9.926;2024-02-21T00:57:13;9.30;99.90
17954;DHT22;9102;53.548;9.926;2024-02-21T00:59:40;9.20;99.90
17954;DHT22;9102;53.548;9.926;2024-02-21T01:02:07;9.30;99.90
17954;DHT22;9102;53.548;9.926;2024-02-21T01:04:34;9.30;99.90
17954;DHT22;9102;53.548;9.926;2024-02-21T01:07:02;9.30;99.90
17954;DHT22;9102;53.548;9.926;2024-02-21T01:09:28;9.30;99.90
17954;DHT22;9102;53.548;9.926;2024-02-21T01:11:55;9.20;99.90
17954;DHT22;9102;53.548;9.926;2024-02-21T01:14:23;9.30;99.90
17954;DHT22;9102;53.548;9.926;2024-02-21T01:16:50;9.30;99.90
17954;DHT22;9102;53.548;9.926;2024-02-21T01:19:17;9.30;99.90
17954;DHT22;9102;53.548;9.926;2024-02-21T01:21:43;9.30;99.90
17954;DHT22;9102;53.548;9.926;2024-02-21T01:24:10;9.40;99.90
17954;DHT22;9102;53.548;9.926;2024-02-21T01:26:37;9.30;99.90
17954;DHT22;9102;53.548;9.926;2024-02-21T01:29:04;9.30;99.90
17954;DHT22;9102;53.548;9.926;2024-02-21T01:31:32;9.30;99.90
17954;DHT22;9102;53.548;9.926;2024-02-21T01:33:59;9.30;99.90
17954;DHT22;9102;53.548;9.926;2024-02-21T01:36:25;9.20;99.90
17954;DHT22;9102;53.548;9.926;2024-02-21T01:38:52;9.20;99.90
17954;DHT22;9102;53.548;9.926;2024-02-21T01:41:19;9.30;99.90
17954;DHT22;9102;53.548;9.926;2024-02-21T01:43:46;9.20;99.90
17954;DHT22;9102;53.548;9.926;2024-02-21T01:46:12;9.20;99.90
17954;DHT22;9102;53.548;9.926;2024-02-21T01:48:41;9.20;99.90
17954;DHT22;9102;53.548;9.926;2024-02-21T01:51:08;9.10;99.90
17954;DHT22;9102;53.548;9.926;2024-02-21T01:53:37;9.10;99.90
17954;DHT22;9102;53.548;9.926;2024-02-21T01:56:05;9.10;99.90
17954;DHT22;9102;53.548;9.926;2024-02-21T01:58:33;9.00;99.90
17954;DHT22;9102;53.548;9.926;2024-02-21T02:01:02;9.00;99.90
17954;DHT22;9102;53.548;9.926;2024-02-21T02:03:29;9.00;99.90
17954;DHT22;9102;53.548;9.926;2024-02-21T02:05:58;8.90;99.90
17954;DHT22;9102;53.548;9.926;2024-02-21T02:08:25;8.90;99.90
17954;DHT22;9102;53.548;9.926;2024-02-21T02:10:52;8.90;99.90
17954;DHT22;9102;53.548;9.926;2024-02-21T02:13:18;8.80;99.90
17954;DHT22;9102;53.548;9.926;2024-02-21T02:15:46;8.90;99.90
17954;DHT22;9102;53.548;9.926;2024-02-21T02:18:14;8.90;99.90
17954;DHT22;9102;53.548;9.926;2024-02-21T02:20:42;8.90;99.90
17954;DHT22;9102;53.548;9.926;2024-02-21T02:23:12;8.90;99.90
17954;DHT22;9102;53.548;9.926;2024-02-21T02:25:42;8.90;99.90
17954;DHT22;9102;53.548;9.926;2024-02-21T02:28:09;8.80;99.90
17954;DHT22;9102;53.548;9.926;2024-02-21T02:30:36;8.80;99.90
17954;DHT22;9102;53.548;9.926;2024-02-21T02:33:03;8.90;99.90
17954;DHT22;9102;53.548;9.926;2024-02-21T02:35:30;8.90;99.90
17954;DHT22;9102;53.548;9.926;2024-02-21T02:37:57;8.90;99.90
17954;DHT22;9102;53.548;9.926;2024-02-21T02:40:24;8.90;99.90
17954;DHT22;9102;53.548;9.926;2024-02-21T02:42:52;8.80;99.90
17954;DHT22;9102;53.548;9.926;2024-02-21T02:45:21;8.80;99.90
17954;DHT22;9102;53.548;9.926;2024-02-21T02:47:49;8.90;99.90
17954;DHT22;9102;53.548;9.926;2024-02-21T02:50:16;8.90;99.90
17954;DHT22;9102;53.548;9.926;2024-02-21T02:52:42;8.90;99.90
17954;DHT22;9102;53.548;9.926;2024-02-21T02:55:09;8.90;99.90
17954;DHT22;9102;53.548;9.926;2024-02-21T02:57:36;8.90;99.90
17954;DHT22;9102;53.548;9.926;2024-02-21T03:00:05;8.90;99.90
17954;DHT22;9102;53.548;9.926;2024-02-21T03:02:33;8.90;99.90
17954;DHT22;9102;53.548;9.926;2024-02-21T03:05:00;9.00;99.90
17954;DHT22;9102;53.548;9.926;2024-02-21T03:07:27;9.00;99.90
17954;DHT22;9102;53.548;9.926;2024-02-21T03:09:54;8.90;99.90
17954;DHT22;9102;53.548;9.926;2024-02-21T03:12:21;9.00;99.90
17954;DHT22;9102;53.548;9.926;2024-02-21T03:14:53;9.00;99.90
17954;DHT22;9102;53.548;9.926;2024-02-21T03:17:20;8.90;99.90
17954;DHT22;9102;53.548;9.926;2024-02-21T03:19:48;9.00;99.90
17954;DHT22;9102;53.548;9.926;2024-02-21T03:22:15;9.00;99.90
17954;DHT22;9102;53.548;9.926;2024-02-21T03:24:42;9.00;99.90
17954;DHT22;9102;53.548;9.926;2024-02-21T03:27:09;9.00;99.90
17954;DHT22;9102;53.548;9.926;2024-02-21T03:29:36;9.10;99.90
17954;DHT22;9102;53.548;9.926;2024-02-21T03:32:03;9.10;99.90
17954;DHT22;9102;53.548;9.926;2024-02-21T03:34:31;9.20;99.90
17954;DHT22;9102;53.548;9.926;2024-02-21T03:36:58;9.20;99.90
17954;DHT22;9102;53.548;9.926;2024-02-21T03:39:25;9.20;99.90
17954;DHT22;9102;53.548;9.926;2024-02-21T03:41:52;9.20;99.90
17954;DHT22;9102;53.548;9.926;2024-02-21T03:44:19;9.20;99.90
17954;DHT22;9102;53.548;9.926;2024-02-21T03:46:46;9.20;99.90
17954;DHT22;9102;53.548;9.926;2024-02-21T03:49:12;9.30;99.90
17954;DHT22;9102;53.548;9.926;2024-02-21T03:51:40;9.30;99.90
17954;DHT22;9102;53.548;9.926;2024-02-21T03:54:07;9.30;99.90
17954;DHT22;9102;53.548;9.926;2024-02-21T03:56:37;9.30;99.90
17954;DHT22;9102;53.548;9.926;2024-02-21T03:59:05;9.30;99.90
17954;DHT22;9102;53.548;9.926;2024-02-21T04:01:32;9.20;99.90
17954;DHT22;9102;53.548;9.926;2024-02-21T04:03:58;9.20;99.90
17954;DHT22;9102;53.548;9.926;2024-02-21T04:06:25;9.20;99.90
17954;DHT22;9102;53.548;9.926;2024-02-21T04:08:54;9.10;99.90
17954;DHT22;9102;53.548;9.926;2024-02-21T04:11:21;9.10;99.90
17954;DHT22;9102;53.548;9.926;2024-02-21T04:13:47;9.10;99.90
17954;DHT22;9102;53.548;9.926;2024-02-21T04:16:16;9.00;99.90
17954;DHT22;9102;53.548;9.926;2024-02-21T04:18:43;9.00;99.90
17954;DHT22;9102;53.548;9.926;2024-02-21T04:21:14;8.90;99.90
17954;DHT22;9102;53.548;9.926;2024-02-21T04:23:41;8.90;99.90
17954;DHT22;9102;53.548;9.926;2024-02-21T04:26:09;9.00;99.90
17954;DHT22;9102;53.548;9.926;2024-02-21T04:28:35;8.90;99.90
17954;DHT22;9102;53.548;9.926;2024-02-21T04:31:03;8.90;99.90
17954;DHT22;9102;53.548;9.926;2024-02-21T04:33:30;8.90;99.90
17954;DHT22;9102;53.548;9.926;2024-02-21T04:35:57;8.90;99.90
17954;DHT22;9102;53.548;9.926;2024-02-21T04:38:26;8.90;99.90
17954;DHT22;9102;53.548;9.926;2024-02-21T04:40:54;8.80;99.90
17954;DHT22;9102;53.548;9.926;2024-02-21T04:43:22;8.80;99.90
17954;DHT22;9102;53.548;9.926;2024-02-21T04:45:49;8.80;99.90
17954;DHT22;9102;53.548;9.926;2024-02-21T04:48:16;8.80;99.90
17954;DHT22;9102;53.548;9.926;2024-02-21T04:50:42;8.80;99.90
17954;DHT22;9102;53.548;9.926;2024-02-21T04:53:09;8.80;99.90
17954;DHT22;9102;53.548;9.926;2024-02-21T04:55:36;8.80;99.90
17954;DHT22;9102;53.548;9.926;2024-02-21T04:58:03;8.80;99.90
17954;DHT22;9102;53.548;9.926;2024-02-21T05:00:31;8.80;99.90
17954;DHT22;9102;53.548;9.926;2024-02-21T05:02:58;8.80;99.90
17954;DHT22;9102;53.548;9.926;2024-02-21T05:05:25;8.70;99.90
17954;DHT22;9102;53.548;9.926;2024-02-21T05:07:51;8.70;99.90
17954;DHT22;9102;53.548;9.926;2024-02-21T05:10:18;8.80;99.90
17954;DHT22;9102;53.548;9.926;2024-02-21T05:12:46;8.70;99.90
17954;DHT22;9102;53.548;9.926;2024-02-21T05:15:12;8.80;99.90
17954;DHT22;9102;53.548;9.926;2024-02-21T05:17:40;8.80;99.90
17954;DHT22;9102;53.548;9.926;2024-02-21T05:20:09;8.80;99.90
17954;DHT22;9102;53.548;9.926;2024-02-21T05:22:36;8.70;99.90
17954;DHT22;9102;53.548;9.926;2024-02-21T05:25:03;8.70;99.90
17954;DHT22;9102;53.548;9.926;2024-02-21T05:27:29;8.70;99.90
17954;DHT22;9102;53.548;9.926;2024-02-21T05:29:56;8.80;99.90
17954;DHT22;9102;53.548;9.926;2024-02-21T05:32:23;8.70;99.90
17954;DHT22;9102;53.548;9.926;2024-02-21T05:34:52;8.80;99.90
17954;DHT22;9102;53.548;9.926;2024-02-21T05:37:18;8.70;99.90
17954;DHT22;9102;53.548;9.926;2024-02-21T05:39:45;8.70;99.90
17954;DHT22;9102;53.548;9.926;2024-02-21T05:42:12;8.70;99.90
17954;DHT22;9102;53.548;9.926;2024-02-21T05:44:39;8.70;99.90
17954;DHT22;9102;53.548;9.926;2024-02-21T05:47:06;8.70;99.90
17954;DHT22;9102;53.548;9.926;2024-02-21T05:49:35;8.70;99.90
17954;DHT22;9102;53.548;9.926;2024-02-21T05:52:04;8.60;99.90
17954;DHT22;9102;53.548;9.926;2024-02-21T05:54:31;8.60;99.90
17954;DHT22;9102;53.548;9.926;2024-02-21T05:56:58;8.70;99.90
17954;DHT22;9102;53.548;9.926;2024-02-21T05:59:25;8.70;99.90
17954;DHT22;9102;53.548;9.926;2024-02-21T06:01:55;8.70;99.90
17954;DHT22;9102;53.548;9.926;2024-02-21T06:04:23;8.70;99.90
17954;DHT22;9102;53.548;9.926;2024-02-21T06:06:49;8.60;99.90
17954;DHT22;9102;53.548;9.926;2024-02-21T06:09:18;8.60;99.90
17954;DHT22;9102;53.548;9.926;2024-02-21T06:11:44;8.70;99.90
17954;DHT22;9102;53.548;9.926;2024-02-21T06:14:11;8.70;99.90
17954;DHT22;9102;53.548;9.926;2024-02-21T06:16:38;8.70;99.90
17954;DHT22;9102;53.548;9.926;2024-02-21T06:19:05;8.70;99.90
17954;DHT22;9102;53.548;9.926;2024-02-21T06:21:32;8.70;99.90
17954;DHT22;9102;53.548;9.926;2024-02-21T06:23:59;8.70;99.90
17954;DHT22;9102;53.548;9.926;2024-02-21T06:26:27;8.70;99.90
17954;DHT22;9102;53.548;9.926;2024-02-21T06:28:54;8.70;99.90
17954;DHT22;9102;53.548;9.926;2024-02-21T06:31:21;8.70;99.90
17954;DHT22;9102;53.548;9.926;2024-02-21T06:33:48;8.80;99.90
17954;DHT22;9102;53.548;9.926;2024-02-21T06:36:14;8.90;99.90
17954;DHT22;9102;53.548;9.926;2024-02-21T06:38:41;8.80;99.90
17954;DHT22;9102;53.548;9.926;2024-02-21T06:41:15;8.80;99.90
17954;DHT22;9102;53.548;9.926;2024-02-21T06:43:43;8.70;99.90
17954;DHT22;9102;53.548;9.926;2024-02-21T06:46:10;8.70;99.90
17954;DHT22;9102;53.548;9.926;2024-02-21T06:48:37;8.70;99.90
17954;DHT22;9102;53.548;9.926;2024-02-21T06:51:04;8.80;99.90
17954;DHT22;9102;53.548;9.926;2024-02-21T06:53:31;8.80;99.90
17954;DHT22;9102;53.548;9.926;2024-02-21T06:55:58;8.80;99.90
17954;DHT22;9102;53.548;9.926;2024-02-21T06:58:24;8.80;99.90
17954;DHT22;9102;53.548;9.926;2024-02-21T07:00:52;8.80;99.90
17954;DHT22;9102;53.548;9.926;2024-02-21T07:03:19;8.80;99.90
17954;DHT22;9102;53.548;9.926;2024-02-21T07:05:46;8.90;99.90
17954;DHT22;9102;53.548;9.926;2024-02-21T07:08:13;8.80;99.90
17954;DHT22;9102;53.548;9.926;2024-02-21T07:10:39;8.80;99.90
17954;DHT22;9102;53.548;9.926;2024-02-21T07:13:06;8.80;99.90
17954;DHT22;9102;53.548;9.926;2024-02-21T07:15:33;8.80;99.90
17954;DHT22;9102;53.548;9.926;2024-02-21T07:18:03;8.80;99.90
17954;DHT22;9102;53.548;9.926;2024-02-21T07:20:30;8.80;99.90
17954;DHT22;9102;53.548;9.926;2024-02-21T07:22:59;8.80;99.90
17954;DHT22;9102;53.548;9.926;2024-02-21T07:25:25;8.80;99.90
17954;DHT22;9102;53.548;9.926;2024-02-21T07:27:52;8.90;99.90
17954;DHT22;9102;53.548;9.926;2024-02-21T07:30:19;8.90;99.90
17954;DHT22;9102;53.548;9.926;2024-02-21T07:32:49;8.90;99.90
17954;DHT22;9102;53.548;9.926;2024-02-21T07:35:18;8.90;99.90
17954;DHT22;9102;53.548;9.926;2024-02-21T07:37:44;9.00;99.90
17954;DHT22;9102;53.548;9.926;2024-02-21T07:40:15;9.00;99.90
17954;DHT22;9102;53.548;9.926;2024-02-21T07:42:42;9.00;99.90
17954;DHT22;9102;53.548;9.926;2024-02-21T07:45:09;8.90;99.90
17954;DHT22;9102;53.548;9.926;2024-02-21T07:47:37;8.90;99.90
17954;DHT22;9102;53.548;9.926;2024-02-21T07:50:04;8.90;99.90
17954;DHT22;9102;53.548;9.926;2024-02-21T07:52:33;9.00;99.90
17954;DHT22;9102;53.548;9.926;2024-02-21T07:54:59;9.00;99.90
17954;DHT22;9102;53.548;9.926;2024-02-21T07:57:26;9.00;99.90
17954;DHT22;9102;53.548;9.926;2024-02-21T07:59:53;9.00;99.90
17954;DHT22;9102;53.548;9.926;2024-02-21T08:02:20;9.00;99.90
17954;DHT22;9102;53.548;9.926;2024-02-21T08:04:47;9.00;99.90
17954;DHT22;9102;53.548;9.926;2024-02-21T08:07:14;9.10;99.90
17954;DHT22;9102;53.548;9.926;2024-02-21T08:09:42;9.00;99.90
17954;DHT22;9102;53.548;9.926;2024-02-21T08:12:09;9.00;99.90
17954;DHT22;9102;53.548;9.926;2024-02-21T08:14:35;8.90;99.90
17954;DHT22;9102;53.548;9.926;2024-02-21T08:17:02;8.90;99.90
17954;DHT22;9102;53.548;9.926;2024-02-21T08:19:29;8.90;99.90
17954;DHT22;9102;53.548;9.926;2024-02-21T08:21:56;8.90;99.90
17954;DHT22;9102;53.548;9.926;2024-02-21T08:24:23;8.90;99.90
17954;DHT22;9102;53.548;9.926;2024-02-21T08:26:51;8.90;99.90
17954;DHT22;9102;53.548;9.926;2024-02-21T08:29:19;8.90;99.90
17954;DHT22;9102;53.548;9.926;2024-02-21T08:31:45;8.90;99.90
17954;DHT22;9102;53.548;9.926;2024-02-21T08:34:12;8.90;99.90
17954;DHT22;9102;53.548;9.926;2024-02-21T08:36:39;8.90;99.90
17954;DHT22;9102;53.548;9.926;2024-02-21T08:39:06;8.80;99.90
17954;DHT22;9102;53.548;9.926;2024-02-21T08:41:35;8.80;99.90
17954;DHT22;9102;53.548;9.926;2024-02-21T08:44:03;8.80;99.90
17954;DHT22;9102;53.548;9.926;2024-02-21T08:46:30;8.80;99.90
17954;DHT22;9102;53.548;9.926;2024-02-21T08:48:56;8.80;99.90
17954;DHT22;9102;53.548;9.926;2024-02-21T08:51:23;8.90;99.90
17954;DHT22;9102;53.548;9.926;2024-02-21T08:53:50;8.90;99.90
17954;DHT22;9102;53.548;9.926;2024-02-21T08:56:17;8.90;99.90
17954;DHT22;9102;53.548;9.926;2024-02-21T08:58:44;8.90;99.90
17954;DHT22;9102;53.548;9.926;2024-02-21T09:01:12;8.80;99.90
17954;DHT22;9102;53.548;9.926;2024-02-21T09:03:40;8.80;99.90
17954;DHT22;9102;53.548;9.926;2024-02-21T09:06:07;8.80;99.90
17954;DHT22;9102;53.548;9.926;2024-02-21T09:08:36;8.80;99.90
17954;DHT22;9102;53.548;9.926;2024-02-21T09:11:03;8.80;99.90
17954;DHT22;9102;53.548;9.926;2024-02-21T09:13:29;8.80;99.90
17954;DHT22;9102;53.548;9.926;2024-02-21T09:15:57;8.70;99.90
17954;DHT22;9102;53.548;9.926;2024-02-21T09:18:25;8.70;99.90
17954;DHT22;9102;53.548;9.926;2024-02-21T09:20:52;8.70;99.90
17954;DHT22;9102;53.548;9.926;2024-02-21T09:23:19;8.80;99.90
17954;DHT22;9102;53.548;9.926;2024-02-21T09:25:46;8.70;99.90
17954;DHT22;9102;53.548;9.926;2024-02-21T09:28:13;8.70;99.90
17954;DHT22;9102;53.548;9.926;2024-02-21T09:30:39;8.70;99.90
17954;DHT22;9102;53.548;9.926;2024-02-21T09:33:06;8.70;99.90
17954;DHT22;9102;53.548;9.926;2024-02-21T09:35:34;8.70;99.90
17954;DHT22;9102;53.548;9.926;2024-02-21T09:38:01;8.70;99.90
17954;DHT22;9102;53.548;9.926;2024-02-21T09:40:28;8.70;99.90
17954;DHT22;9102;53.548;9.926;2024-02-21T09:43:02;8.70;99.90
17954;DHT22;9102;53.548;9.926;2024-02-21T09:45:30;8.80;99.90
17954;DHT22;9102;53.548;9.926;2024-02-21T09:48:19;8.80;99.90
17954;DHT22;9102;53.548;9.926;2024-02-21T09:50:51;8.80;99.90
17954;DHT22;9102;53.548;9.926;2024-02-21T09:53:19;8.80;99.90
17954;DHT22;9102;53.548;9.926;2024-02-21T09:55:48;8.90;99.90
17954;DHT22;9102;53.548;9.926;2024-02-21T09:58:15;8.90;99.90
17954;DHT22;9102;53.548;9.926;2024-02-21T10:00:42;8.90;99.90
17954;DHT22;9102;53.548;9.926;2024-02-21T10:03:09;8.80;99.90
17954;DHT22;9102;53.548;9.926;2024-02-21T10:05:36;8.90;99.90
17954;DHT22;9102;53.548;9.926;2024-02-21T10:08:05;8.90;99.90
17954;DHT22;9102;53.548;9.926;2024-02-21T10:10:41;9.00;99.90
17954;DHT22;9102;53.548;9.926;2024-02-21T10:13:09;9.10;99.90
17954;DHT22;9102;53.548;9.926;2024-02-21T10:15:36;9.10;99.90
17954;DHT22;9102;53.548;9.926;2024-02-21T10:18:04;9.10;99.90
17954;DHT22;9102;53.548;9.926;2024-02-21T10:20:32;9.20;99.90
17954;DHT22;9102;53.548;9.926;2024-02-21T10:23:02;9.10;99.90
17954;DHT22;9102;53.548;9.926;2024-02-21T10:25:34;9.20;99.90
17954;DHT22;9102;53.548;9.926;2024-02-21T10:28:04;9.20;99.90
17954;DHT22;9102;53.548;9.926;2024-02-21T10:30:30;9.20;99.90
17954;DHT22;9102;53.548;9.926;2024-02-21T10:32:57;9.30;99.90
17954;DHT22;9102;53.548;9.926;2024-02-21T10:35:28;9.30;99.90
17954;DHT22;9102;53.548;9.926;2024-02-21T10:37:56;9.40;99.90
17954;DHT22;9102;53.548;9.926;2024-02-21T10:40:24;9.40;99.90
17954;DHT22;9102;53.548;9.926;2024-02-21T10:42:56;9.40;99.90
17954;DHT22;9102;53.548;9.926;2024-02-21T10:45:29;9.40;99.90
17954;DHT22;9102;53.548;9.926;2024-02-21T10:48:06;9.50;99.90
17954;DHT22;9102;53.548;9.926;2024-02-21T10:50:43;9.50;99.90
17954;DHT22;9102;53.548;9.926;2024-02-21T10:53:19;9.40;99.90
17954;DHT22;9102;53.548;9.926;2024-02-21T10:55:56;9.40;99.90
17954;DHT22;9102;53.548;9.926;2024-02-21T10:58:26;9.50;99.90
17954;DHT22;9102;53.548;9.926;2024-02-21T11:00:56;9.50;99.90
17954;DHT22;9102;53.548;9.926;2024-02-21T11:03:23;9.50;99.90
17954;DHT22;9102;53.548;9.926;2024-02-21T11:05:51;9.60;99.90
17954;DHT22;9102;53.548;9.926;2024-02-21T11:08:18;9.60;99.90
17954;DHT22;9102;53.548;9.926;2024-02-21T11:10:46;9.60;99.90
17954;DHT22;9102;53.548;9.926;2024-02-21T11:13:13;9.60;99.90
17954;DHT22;9102;53.548;9.926;2024-02-21T11:15:41;9.60;99.90
17954;DHT22;9102;53.548;9.926;2024-02-21T11:18:08;9.60;99.90
17954;DHT22;9102;53.548;9.926;2024-02-21T11:20:36;9.60;99.90
17954;DHT22;9102;53.548;9.926;2024-02-21T11:23:03;9.70;99.90
17954;DHT22;9102;53.548;9.926;2024-02-21T11:25:30;9.80;99.90
17954;DHT22;9102;53.548;9.926;2024-02-21T11:28:02;9.70;99.90
17954;DHT22;9102;53.548;9.926;2024-02-21T11:30:30;9.60;99.90
17954;DHT22;9102;53.548;9.926;2024-02-21T11:33:03;9.60;99.90
17954;DHT22;9102;53.548;9.926;2024-02-21T11:35:34;9.60;99.90
17954;DHT22;9102;53.548;9.926;2024-02-21T11:38:11;9.60;99.90
17954;DHT22;9102;53.548;9.926;2024-02-21T11:40:41;9.60;99.90
17954;DHT22;9102;53.548;9.926;2024-02-21T11:43:08;9.60;99.90
17954;DHT22;9102;53.548;9.926;2024-02-21T11:45:35;9.60;99.90
17954;DHT22;9102;53.548;9.926;2024-02-21T11:48:05;9.60;99.90
17954;DHT22;9102;53.548;9.926;2024-02-21T11:50:32;9.60;99.90
17954;DHT22;9102;53.548;9.926;2024-02-21T11:52:58;9.60;99.90
17954;DHT22;9102;53.548;9.926;2024-02-21T11:55:25;9.60;99.90
17954;DHT22;9102;53.548;9.926;2024-02-21T11:57:52;9.60;99.90
17954;DHT22;9102;53.548;9.926;2024-02-21T12:00:20;9.70;99.90
17954;DHT22;9102;53.548;9.926;2024-02-21T12:02:47;9.70;99.90
17954;DHT22;9102;53.548;9.926;2024-02-21T12:05:19;9.70;99.90
17954;DHT22;9102;53.548;9.926;2024-02-21T12:07:45;9.80;99.90
17954;DHT22;9102;53.548;9.926;2024-02-21T12:10:13;9.80;99.90
17954;DHT22;9102;53.548;9.926;2024-02-21T12:12:40;9.70;99.90
17954;DHT22;9102;53.548;9.926;2024-02-21T12:15:08;9.60;99.90
17954;DHT22;9102;53.548;9.926;2024-02-21T12:17:35;9.60;99.90
17954;DHT22;9102;53.548;9.926;2024-02-21T12:20:02;9.60;99.90
17954;DHT22;9102;53.548;9.926;2024-02-21T12:22:32;9.60;99.90
17954;DHT22;9102;53.548;9.926;2024-02-21T12:24:59;9.60;99.90
17954;DHT22;9102;53.548;9.926;2024-02-21T12:27:26;9.50;99.90
17954;DHT22;9102;53.548;9.926;2024-02-21T12:29:52;9.50;99.90
17954;DHT22;9102;53.548;9.926;2024-02-21T12:32:19;9.50;99.90
17954;DHT22;9102;53.548;9.926;2024-02-21T12:34:46;9.60;99.90
17954;DHT22;9102;53.548;9.926;2024-02-21T12:37:13;9.60;99.90
17954;DHT22;9102;53.548;9.926;2024-02-21T12:39:42;9.50;99.90
17954;DHT22;9102;53.548;9.926;2024-02-21T12:42:09;9.50;99.90
17954;DHT22;9102;53.548;9.926;2024-02-21T12:44:37;9.50;99.90
17954;DHT22;9102;53.548;9.926;2024-02-21T12:47:04;9.50;99.90
17954;DHT22;9102;53.548;9.926;2024-02-21T12:49:31;9.40;99.90
17954;DHT22;9102;53.548;9.926;2024-02-21T12:51:58;9.40;99.90
17954;DHT22;9102;53.548;9.926;2024-02-21T12:54:25;9.50;99.90
17954;DHT22;9102;53.548;9.926;2024-02-21T12:56:53;9.40;99.90
17954;DHT22;9102;53.548;9.926;2024-02-21T12:59:20;9.50;99.90
17954;DHT22;9102;53.548;9.926;2024-02-21T13:01:47;9.60;99.90
17954;DHT22;9102;53.548;9.926;2024-02-21T13:04:14;9.60;99.90
17954;DHT22;9102;53.548;9.926;2024-02-21T13:06:41;9.60;99.90
17954;DHT22;9102;53.548;9.926;2024-02-21T13:09:07;9.70;99.90
17954;DHT22;9102;53.548;9.926;2024-02-21T13:11:36;9.80;99.90
17954;DHT22;9102;53.548;9.926;2024-02-21T13:14:05;9.90;99.90
17954;DHT22;9102;53.548;9.926;2024-02-21T13:16:31;10.10;99.90
17954;DHT22;9102;53.548;9.926;2024-02-21T13:18:59;10.20;99.90
17954;DHT22;9102;53.548;9.926;2024-02-21T13:21:26;10.20;99.90
17954;DHT22;9102;53.548;9.926;2024-02-21T13:23:53;10.30;99.90
17954;DHT22;9102;53.548;9.926;2024-02-21T13:26:20;10.20;99.90
17954;DHT22;9102;53.548;9.926;2024-02-21T13:28:46;10.30;99.90
17954;DHT22;9102;53.548;9.926;2024-02-21T13:31:15;10.20;99.90
17954;DHT22;9102;53.548;9.926;2024-02-21T13:33:42;10.20;99.90
17954;DHT22;9102;53.548;9.926;2024-02-21T13:36:10;10.20;99.90
17954;DHT22;9102;53.548;9.926;2024-02-21T13:38:36;10.20;99.90
17954;DHT22;9102;53.548;9.926;2024-02-21T13:41:04;10.20;99.90
17954;DHT22;9102;53.548;9.926;2024-02-21T13:43:31;10.20;99.90
17954;DHT22;9102;53.548;9.926;2024-02-21T13:45:59;10.10;99.90
17954;DHT22;9102;53.548;9.926;2024-02-21T13:48:28;10.20;99.90
17954;DHT22;9102;53.548;9.926;2024-02-21T13:50:55;10.20;99.90
17954;DHT22;9102;53.548;9.926;2024-02-21T13:53:22;10.20;99.90
17954;DHT22;9102;53.548;9.926;2024-02-21T13:55:49;10.30;99.90
17954;DHT22;9102;53.548;9.926;2024-02-21T13:58:16;10.30;99.90
17954;DHT22;9102;53.548;9.926;2024-02-21T14:00:44;10.50;99.90
17954;DHT22;9102;53.548;9.926;2024-02-21T14:03:10;10.40;99.90
17954;DHT22;9102;53.548;9.926;2024-02-21T14:05:39;10.50;99.90
17954;DHT22;9102;53.548;9.926;2024-02-21T14:08:06;10.60;99.90
17954;DHT22;9102;53.548;9.926;2024-02-21T14:10:33;10.60;99.90
17954;DHT22;9102;53.548;9.926;2024-02-21T14:13:00;10.60;99.90
17954;DHT22;9102;53.548;9.926;2024-02-21T14:15:27;10.70;99.90
17954;DHT22;9102;53.548;9.926;2024-02-21T14:17:53;10.60;99.90
17954;DHT22;9102;53.548;9.926;2024-02-21T14:20:21;10.50;99.90
17954;DHT22;9102;53.548;9.926;2024-02-21T14:22:49;10.50;99.90
17954;DHT22;9102;53.548;9.926;2024-02-21T14:25:16;10.60;99.90
17954;DHT22;9102;53.548;9.926;2024-02-21T14:27:43;10.70;99.90
17954;DHT22;9102;53.548;9.926;2024-02-21T14:30:10;10.80;99.90
17954;DHT22;9102;53.548;9.926;2024-02-21T14:32:37;10.70;99.90
17954;DHT22;9102;53.548;9.926;2024-02-21T14:35:04;10.70;99.90
17954;DHT22;9102;53.548;9.926;2024-02-21T14:37:32;10.70;99.90
17954;DHT22;9102;53.548;9.926;2024-02-21T14:40:00;10.60;99.90
17954;DHT22;9102;53.548;9.926;2024-02-21T14:42:27;10.70;99.90
17954;DHT22;9102;53.548;9.926;2024-02-21T14:44:53;10.70;99.90
17954;DHT22;9102;53.548;9.926;2024-02-21T14:47:29;10.70;99.90
17954;DHT22;9102;53.548;9.926;2024-02-21T14:49:56;10.70;99.90
17954;DHT22;9102;53.548;9.926;2024-02-21T14:52:23;10.70;99.90
17954;DHT22;9102;53.548;9.926;2024-02-21T14:54:53;10.70;99.90
17954;DHT22;9102;53.548;9.926;2024-02-21T14:57:21;10.70;99.90
17954;DHT22;9102;53.548;9.926;2024-02-21T14:59:49;10.70;99.90
17954;DHT22;9102;53.548;9.926;2024-02-21T15:02:21;10.60;99.90
17954;DHT22;9102;53.548;9.926;2024-02-21T15:04:48;10.60;99.90
17954;DHT22;9102;53.548;9.926;2024-02-21T15:07:16;10.60;99.90
17954;DHT22;9102;53.548;9.926;2024-02-21T15:09:44;10.50;99.90
17954;DHT22;9102;53.548;9.926;2024-02-21T15:12:11;10.50;99.90
17954;DHT22;9102;53.548;9.926;2024-02-21T15:14:39;10.40;99.90
17954;DHT22;9102;53.548;9.926;2024-02-21T15:17:06;10.50;99.90
17954;DHT22;9102;53.548;9.926;2024-02-21T15:19:33;10.40;99.90
17954;DHT22;9102;53.548;9.926;2024-02-21T15:22:00;10.40;99.90
17954;DHT22;9102;53.548;9.926;2024-02-21T15:24:26;10.40;99.90
17954;DHT22;9102;53.548;9.926;2024-02-21T15:26:53;10.30;99.90
17954;DHT22;9102;53.548;9.926;2024-02-21T15:29:20;10.30;99.90
17954;DHT22;9102;53.548;9.926;2024-02-21T15:31:50;10.30;99.90
17954;DHT22;9102;53.548;9.926;2024-02-21T15:34:18;10.30;99.90
17954;DHT22;9102;53.548;9.926;2024-02-21T15:36:44;10.30;99.90
17954;DHT22;9102;53.548;9.926;2024-02-21T15:39:11;10.30;99.90
17954;DHT22;9102;53.548;9.926;2024-02-21T15:41:38;10.20;99.90
17954;DHT22;9102;53.548;9.926;2024-02-21T15:44:05;10.30;99.90
17954;DHT22;9102;53.548;9.926;2024-02-21T15:46:32;10.30;99.90
17954;DHT22;9102;53.548;9.926;2024-02-21T15:49:03;10.20;99.90
17954;DHT22;9102;53.548;9.926;2024-02-21T15:51:30;10.20;99.90
17954;DHT22;9102;53.548;9.926;2024-02-21T15:53:58;10.10;99.90
17954;DHT22;9102;53.548;9.926;2024-02-21T15:56:25;10.10;99.90
17954;DHT22;9102;53.548;9.926;2024-02-21T15:58:53;10.10;99.90
17954;DHT22;9102;53.548;9.926;2024-02-21T16:01:20;10.10;99.90